Terminal Aerodrome Forecast
Issued by NWS

Home | Current Version | Previous Version | Text Only | Print | Product List | Glossary On
Versions: 1 2 3 4 5 6 7 8 9 10 11 12 13 14 15 16 17 18
000
FTUS45 KGJT 201120
TAFEGE
TAF
KEGE 201120Z 2012/2112 11004KT P6SM FEW200
     FM201700 20004KT P6SM SCT200
     FM202000 23008KT P6SM SCT200
     FM210700 12005KT P6SM BKN100
      AMD LTD TO CLD VIS AND WIND TIL 201400=

USA.gov is the U.S. government's official web portal to all federal, state and local government web resources and services.